createdAt,value
2018-12-21T00:00:12.267Z,4.90
2018-12-21T00:05:14.670Z,6.10
2018-12-21T00:10:17.138Z,4.20
2018-12-21T00:15:19.590Z,4.37
2018-12-21T00:20:22.013Z,4.67
2018-12-21T00:25:24.420Z,5.47
2018-12-21T00:30:26.374Z,4.43
2018-12-21T00:35:34.602Z,3.40
2018-12-21T00:40:42.890Z,5.43
2018-12-21T00:45:47.228Z,4.90
2018-12-21T00:50:49.634Z,4.33
2018-12-21T00:55:52.077Z,2.63
2018-12-21T01:00:54.594Z,5.27
2018-12-21T01:05:57.079Z,3.60
2018-12-21T01:10:59.518Z,4.40
2018-12-21T01:16:01.962Z,3.97
2018-12-21T01:21:04.402Z,4.47
2018-12-21T01:26:06.881Z,5.10
2018-12-21T01:31:09.389Z,3.33
2018-12-21T01:36:12.002Z,3.63
2018-12-21T01:41:14.414Z,5.30
2018-12-21T01:46:16.822Z,4.20
2018-12-21T01:51:19.265Z,4.07
2018-12-21T01:56:21.702Z,3.97
2018-12-21T02:01:24.139Z,4.97
2018-12-21T02:06:26.662Z,3.00
2018-12-21T02:11:29.075Z,4.10
2018-12-21T02:16:31.474Z,2.93
2018-12-21T02:21:33.874Z,4.00
2018-12-21T02:26:36.309Z,4.67
2018-12-21T02:31:38.786Z,4.27
2018-12-21T02:36:41.188Z,5.27
2018-12-21T02:41:43.602Z,3.77
2018-12-21T02:46:46.014Z,5.60
2018-12-21T02:51:48.432Z,6.47
2018-12-21T02:56:50.898Z,3.90
2018-12-21T03:01:53.374Z,3.10
2018-12-21T03:06:55.791Z,3.67
2018-12-21T03:11:58.206Z,2.87
2018-12-21T03:17:00.691Z,4.30
2018-12-21T03:22:03.130Z,3.00
2018-12-21T03:27:05.538Z,3.83
2018-12-21T03:32:07.951Z,3.17
2018-12-21T03:37:10.415Z,2.10
2018-12-21T03:42:12.926Z,3.80
2018-12-21T03:47:15.370Z,3.17
2018-12-21T03:52:24.242Z,2.07
2018-12-21T03:57:22.227Z,2.53
2018-12-21T04:02:24.666Z,2.77
2018-12-21T04:07:27.106Z,4.30
2018-12-21T04:12:29.572Z,1.90
2018-12-21T04:17:32.049Z,2.70
2018-12-21T04:22:34.710Z,2.80
2018-12-21T04:27:37.215Z,2.20
2018-12-21T04:32:39.698Z,4.13
2018-12-21T04:37:42.140Z,2.53
2018-12-21T04:42:44.707Z,2.90
2018-12-21T04:47:47.182Z,3.10
2018-12-21T04:52:49.606Z,1.87
2018-12-21T04:57:52.079Z,2.90
2018-12-21T05:02:54.492Z,4.13
2018-12-21T05:07:56.894Z,1.97
2018-12-21T05:12:59.310Z,2.40
2018-12-21T05:18:01.828Z,3.37
2018-12-21T05:23:04.225Z,2.20
2018-12-21T05:28:07.155Z,1.97
2018-12-21T05:33:09.640Z,4.83
2018-12-21T05:38:12.118Z,1.93
2018-12-21T05:43:14.585Z,2.30
2018-12-21T05:48:17.002Z,1.73
2018-12-21T05:53:19.402Z,1.97
2018-12-21T05:58:21.810Z,2.73
2018-12-21T06:03:24.219Z,2.90
2018-12-21T06:08:26.694Z,3.10
2018-12-21T06:13:29.207Z,2.77
2018-12-21T06:18:31.608Z,2.10
2018-12-21T06:23:34.092Z,2.70
2018-12-21T06:28:36.507Z,2.90
2018-12-21T06:33:38.997Z,2.60
2018-12-21T06:38:41.402Z,1.37
2018-12-21T06:43:43.917Z,3.00
2018-12-21T06:48:46.318Z,3.10
2018-12-21T06:53:48.725Z,2.70
2018-12-21T06:58:51.162Z,1.80
2018-12-21T07:03:53.566Z,2.00
2018-12-21T07:08:55.990Z,2.67
2018-12-21T07:13:58.399Z,3.20
2018-12-21T07:19:00.918Z,2.20
2018-12-21T07:24:03.368Z,2.67
2018-12-21T07:29:05.806Z,2.10
2018-12-21T07:34:08.210Z,1.70
2018-12-21T07:39:10.718Z,3.17
2018-12-21T07:44:13.208Z,2.00
2018-12-21T07:49:15.628Z,2.73
2018-12-21T07:54:18.066Z,2.10
2018-12-21T07:59:20.504Z,1.33
2018-12-21T08:04:22.979Z,1.83
2018-12-21T08:09:25.416Z,2.80
2018-12-21T08:14:27.945Z,2.87
2018-12-21T08:19:32.149Z,2.23
2018-12-21T08:24:34.817Z,3.67
2018-12-21T08:29:37.250Z,1.80
2018-12-21T08:34:39.693Z,3.77
2018-12-21T08:39:42.155Z,2.47
2018-12-21T08:44:44.550Z,1.10
2018-12-21T08:49:46.983Z,2.90
2018-12-21T08:54:49.432Z,2.23
2018-12-21T08:59:51.899Z,1.57
2018-12-21T09:04:54.494Z,1.27
2018-12-21T09:09:56.910Z,1.57
2018-12-21T09:14:59.460Z,2.93
2018-12-21T09:20:01.899Z,1.43
2018-12-21T09:25:05.070Z,1.60
2018-12-21T09:30:10.246Z,1.53
2018-12-21T09:35:12.663Z,2.70
2018-12-21T09:40:15.118Z,2.20
2018-12-21T09:45:17.558Z,2.20
2018-12-21T09:50:19.997Z,1.23
2018-12-21T09:55:22.437Z,1.57
2018-12-21T10:00:24.845Z,2.40
2018-12-21T10:05:27.350Z,1.37
2018-12-21T10:10:29.759Z,2.10
2018-12-21T10:15:32.164Z,2.33
2018-12-21T10:20:34.670Z,2.40
2018-12-21T10:25:37.076Z,2.30
2018-12-21T10:30:39.551Z,2.20
2018-12-21T10:35:41.950Z,2.00
2018-12-21T10:40:44.350Z,2.43
2018-12-21T10:45:46.827Z,1.10
2018-12-21T10:50:49.307Z,1.00
2018-12-21T10:55:51.714Z,1.40
2018-12-21T11:00:54.226Z,0.60
2018-12-21T11:05:56.730Z,0.40
2018-12-21T11:10:59.342Z,0.50
2018-12-21T11:16:01.879Z,0.57
2018-12-21T11:21:04.321Z,1.17
2018-12-21T11:26:06.801Z,0.60
2018-12-21T11:31:09.272Z,0.53
2018-12-21T11:36:11.784Z,0.70
2018-12-21T11:41:14.778Z,0.60
2018-12-21T11:46:17.186Z,0.40
2018-12-21T11:51:19.591Z,0.67
2018-12-21T11:56:21.994Z,0.47
2018-12-21T12:01:24.410Z,0.67
2018-12-21T12:06:26.932Z,0.50
2018-12-21T12:11:29.506Z,0.50
2018-12-21T12:16:32.060Z,0.60
2018-12-21T12:21:34.566Z,0.60
2018-12-21T12:26:44.230Z,0.47
2018-12-21T12:31:42.951Z,0.70
2018-12-21T12:36:45.567Z,0.70
2018-12-21T12:41:47.974Z,0.60
2018-12-21T12:46:50.378Z,0.70
2018-12-21T12:51:52.823Z,0.60
2018-12-21T12:56:55.262Z,0.60
2018-12-21T13:01:58.549Z,0.60
2018-12-21T13:07:01.121Z,0.77
2018-12-21T13:12:03.641Z,0.80
2018-12-21T13:17:06.159Z,0.50
2018-12-21T13:22:08.574Z,0.60
2018-12-21T13:27:11.026Z,0.50
2018-12-21T13:32:13.430Z,0.50
2018-12-21T13:37:15.836Z,0.60
2018-12-21T13:42:18.243Z,0.90
2018-12-21T13:47:20.658Z,0.90
2018-12-21T13:52:23.102Z,0.87
2018-12-21T13:57:25.520Z,0.90
2018-12-21T14:02:28.042Z,0.90
2018-12-21T14:07:30.450Z,1.37
2018-12-21T14:12:32.866Z,0.60
2018-12-21T14:17:35.322Z,0.60
2018-12-21T14:22:37.819Z,0.60
2018-12-21T14:27:40.278Z,1.20
2018-12-21T14:32:42.727Z,1.20
2018-12-21T14:37:45.169Z,1.20
2018-12-21T14:42:47.605Z,2.70
2018-12-21T14:47:50.011Z,1.70
2018-12-21T14:52:52.531Z,1.63
2018-12-21T14:57:54.985Z,1.70
2018-12-21T15:02:57.418Z,1.03
2018-12-21T15:07:59.867Z,2.13
2018-12-21T15:13:02.278Z,1.30
2018-12-21T15:18:04.731Z,1.20
2018-12-21T15:23:07.134Z,1.23
2018-12-21T15:28:09.578Z,0.60
2018-12-21T15:33:11.986Z,0.60
2018-12-21T15:38:14.387Z,0.53
2018-12-21T15:43:16.799Z,0.50
2018-12-21T15:48:19.333Z,0.57
2018-12-21T15:53:21.739Z,0.40
2018-12-21T15:58:24.153Z,0.73
2018-12-21T16:03:26.618Z,0.40
2018-12-21T16:08:29.073Z,0.50
2018-12-21T16:13:31.527Z,0.50
2018-12-21T16:18:33.941Z,0.70
2018-12-21T16:23:36.358Z,0.77
2018-12-21T16:28:38.819Z,0.40
2018-12-21T16:33:41.226Z,0.70
2018-12-21T16:38:43.667Z,0.43
2018-12-21T16:43:46.108Z,0.70
2018-12-21T16:48:48.537Z,0.90
2018-12-21T16:53:50.939Z,0.50
2018-12-21T16:58:53.374Z,0.70
2018-12-21T17:03:55.774Z,0.70
2018-12-21T17:08:58.188Z,0.70
2018-12-21T17:14:02.018Z,0.50
2018-12-21T17:19:06.306Z,0.40
2018-12-21T17:24:08.875Z,0.47
2018-12-21T17:29:11.274Z,0.93
2018-12-21T17:34:13.718Z,0.50
2018-12-21T17:39:16.168Z,0.70
2018-12-21T17:44:18.602Z,0.60
2018-12-21T17:49:21.078Z,0.50
2018-12-21T17:54:23.482Z,0.67
2018-12-21T17:59:26.056Z,0.50
2018-12-21T18:04:28.461Z,0.53
2018-12-21T18:09:31.021Z,0.57
2018-12-21T18:14:33.425Z,0.80
2018-12-21T18:19:35.838Z,0.50
2018-12-21T18:24:38.252Z,0.50
2018-12-21T18:29:40.763Z,0.50
2018-12-21T18:34:43.239Z,0.70
2018-12-21T18:39:45.721Z,0.60
2018-12-21T18:44:48.262Z,0.50
2018-12-21T18:49:50.771Z,0.87
2018-12-21T18:54:53.237Z,0.50
2018-12-21T18:59:55.658Z,0.50
2018-12-21T19:04:58.130Z,0.63
2018-12-21T19:10:00.542Z,0.83
2018-12-21T19:15:03.017Z,0.70
2018-12-21T19:20:08.100Z,0.40
2018-12-21T19:25:10.570Z,0.60
2018-12-21T19:30:13.006Z,0.67
2018-12-21T19:35:15.463Z,1.00
2018-12-21T19:40:17.941Z,0.60
2018-12-21T19:45:20.390Z,0.53
2018-12-21T19:50:22.803Z,0.80
2018-12-21T19:55:29.081Z,0.80
2018-12-21T20:00:31.490Z,0.50
2018-12-21T20:05:33.894Z,0.70
2018-12-21T20:10:36.322Z,0.60
2018-12-21T20:15:38.786Z,0.80
2018-12-21T20:20:41.231Z,0.70
2018-12-21T20:25:43.654Z,0.60
2018-12-21T20:30:46.080Z,0.70
2018-12-21T20:35:48.535Z,0.50
2018-12-21T20:40:51.013Z,0.60
2018-12-21T20:45:53.567Z,1.10
2018-12-21T20:50:55.998Z,0.80
2018-12-21T20:55:58.478Z,0.53
2018-12-21T21:01:00.952Z,0.97
2018-12-21T21:06:03.361Z,0.67
2018-12-21T21:11:05.793Z,0.53
2018-12-21T21:16:08.222Z,1.03
2018-12-21T21:21:10.678Z,0.53
2018-12-21T21:26:13.083Z,0.70
2018-12-21T21:31:15.628Z,0.60
2018-12-21T21:36:18.739Z,0.93
2018-12-21T21:41:21.173Z,0.57
2018-12-21T21:46:24.417Z,0.60
2018-12-21T21:56:41.606Z,0.70
2018-12-21T22:01:44.061Z,0.50
2018-12-21T22:06:46.495Z,0.70
2018-12-21T22:11:48.950Z,0.60
2018-12-21T22:16:51.362Z,0.57
2018-12-21T22:21:53.811Z,0.60
2018-12-21T22:26:56.247Z,0.50
2018-12-21T22:31:58.801Z,0.60
2018-12-21T22:37:01.223Z,0.40
2018-12-21T22:42:03.666Z,0.70
2018-12-21T22:47:06.208Z,0.60
2018-12-21T22:52:08.649Z,0.50
2018-12-21T22:57:11.099Z,1.23
2018-12-21T23:02:13.537Z,0.57
2018-12-21T23:07:15.955Z,0.57
2018-12-21T23:12:18.456Z,0.67
2018-12-21T23:17:20.866Z,0.67
2018-12-21T23:22:23.324Z,0.67
2018-12-21T23:27:25.782Z,0.60
2018-12-21T23:32:28.317Z,0.50
2018-12-21T23:37:30.752Z,0.80
2018-12-21T23:42:33.236Z,0.50
2018-12-21T23:47:35.684Z,0.63
2018-12-21T23:52:38.124Z,0.87
2018-12-21T23:57:40.535Z,0.60
